Belfast Municipal (BST)
Belfast, ME
Field Elevation: 198
Lat: 44°24.56N  Long: 69°00.71W
CTAF/Unicom Freq: 122.9750
   
     For Weather-by-Phone, call 207-930-7071
Weather Advisories
2019-10-17   10:14 Z
Altimeter 29.11" Hg
Wind 090° @ 16 KT
Gusts 28 KT
Visibility 3/4 SM
Ceiling BKN007 OVC013
Temperature 11° C (52° F)
Dewpoint 11° C (52° F)
Relative Humidity 100%
Density Altitude --
Condensation Altitude --
Wind and Runways
Indicated Runway = 15
Headwind = 8 kt
Crosswind = 14 kt
History
 
 
 
More Info
NOAA Forecast
 
 
About Us
Belfort Instrument
 
 
FAA Disclaimer: The data displayed is for advisory purposes only and is not to be used for flight planning or operations. For official data, please call 207-930-7071 to hear the current automated AWOS voice message.
  METAR BST 171014Z AUTO 09016G28KT 3/4 SM BKN007 OVC013 11/11 A2911